sensor_id;sensor_type;location;lat;lon;timestamp;pressure;altitude;pressure_sealevel;temperature;humidity
13027;BME280;6580;42.680;23.324;2023-10-08T00:01:03;95713.13;;;13.64;62.84
13027;BME280;6580;42.680;23.324;2023-10-08T00:03:50;95715.97;;;13.55;64.80
13027;BME280;6580;42.680;23.324;2023-10-08T00:06:37;95705.97;;;13.73;64.90
13027;BME280;6580;42.680;23.324;2023-10-08T00:09:24;95712.59;;;13.61;65.18
13027;BME280;6580;42.680;23.324;2023-10-08T00:12:10;95708.94;;;13.54;65.37
13027;BME280;6580;42.680;23.324;2023-10-08T00:14:59;95699.69;;;13.48;65.48
13027;BME280;6580;42.680;23.324;2023-10-08T00:17:46;95701.09;;;13.60;64.99
13027;BME280;6580;42.680;23.324;2023-10-08T00:20:34;95697.38;;;13.53;65.22
13027;BME280;6580;42.680;23.324;2023-10-08T00:23:26;95684.63;;;13.47;66.27
13027;BME280;6580;42.680;23.324;2023-10-08T00:26:13;95686.59;;;13.29;66.86
13027;BME280;6580;42.680;23.324;2023-10-08T00:29:06;95689.63;;;13.34;66.37
13027;BME280;6580;42.680;23.324;2023-10-08T00:31:59;95693.16;;;13.43;64.92
13027;BME280;6580;42.680;23.324;2023-10-08T00:34:55;95692.94;;;13.20;64.67
13027;BME280;6580;42.680;23.324;2023-10-08T00:37:41;95685.56;;;13.15;65.38
13027;BME280;6580;42.680;23.324;2023-10-08T00:40:36;95692.34;;;13.01;66.76
13027;BME280;6580;42.680;23.324;2023-10-08T00:43:30;95692.34;;;13.01;66.23
13027;BME280;6580;42.680;23.324;2023-10-08T00:46:17;95685.88;;;13.12;64.82
13027;BME280;6580;42.680;23.324;2023-10-08T00:49:07;95683.88;;;13.14;63.78
13027;BME280;6580;42.680;23.324;2023-10-08T00:52:09;95678.03;;;13.10;64.56
13027;BME280;6580;42.680;23.324;2023-10-08T00:55:10;95671.31;;;12.98;65.50
13027;BME280;6580;42.680;23.324;2023-10-08T00:58:04;95665.63;;;12.68;67.06
13027;BME280;6580;42.680;23.324;2023-10-08T01:00:59;95669.19;;;12.84;66.63
13027;BME280;6580;42.680;23.324;2023-10-08T01:03:47;95668.16;;;13.03;65.31
13027;BME280;6580;42.680;23.324;2023-10-08T01:06:35;95663.97;;;13.00;65.27
13027;BME280;6580;42.680;23.324;2023-10-08T01:09:23;95674.44;;;12.94;65.97
13027;BME280;6580;42.680;23.324;2023-10-08T01:12:17;95672.78;;;12.93;65.50
13027;BME280;6580;42.680;23.324;2023-10-08T01:15:10;95669.78;;;12.96;65.56
13027;BME280;6580;42.680;23.324;2023-10-08T01:18:03;95674.16;;;12.71;65.93
13027;BME280;6580;42.680;23.324;2023-10-08T01:20:53;95674.03;;;12.73;65.55
13027;BME280;6580;42.680;23.324;2023-10-08T01:23:41;95677.75;;;12.88;64.85
13027;BME280;6580;42.680;23.324;2023-10-08T01:26:29;95669.88;;;12.86;64.22
13027;BME280;6580;42.680;23.324;2023-10-08T01:29:18;95660.25;;;12.60;64.54
13027;BME280;6580;42.680;23.324;2023-10-08T01:32:09;95666.94;;;12.64;64.31
13027;BME280;6580;42.680;23.324;2023-10-08T01:34:55;95675.22;;;12.78;63.54
13027;BME280;6580;42.680;23.324;2023-10-08T01:37:44;95672.66;;;12.69;64.56
13027;BME280;6580;42.680;23.324;2023-10-08T01:40:35;95671.97;;;12.67;63.95
13027;BME280;6580;42.680;23.324;2023-10-08T01:43:23;95685.75;;;12.46;65.04
13027;BME280;6580;42.680;23.324;2023-10-08T01:46:11;95677.94;;;12.27;66.48
13027;BME280;6580;42.680;23.324;2023-10-08T01:48:57;95682.22;;;12.46;65.66
13027;BME280;6580;42.680;23.324;2023-10-08T01:51:48;95661.13;;;12.35;65.04
13027;BME280;6580;42.680;23.324;2023-10-08T01:54:38;95693.50;;;12.40;65.28
13027;BME280;6580;42.680;23.324;2023-10-08T01:57:25;95677.47;;;12.32;65.65
13027;BME280;6580;42.680;23.324;2023-10-08T02:00:14;95683.41;;;12.26;67.14
13027;BME280;6580;42.680;23.324;2023-10-08T02:03:03;95678.47;;;12.39;67.13
13027;BME280;6580;42.680;23.324;2023-10-08T02:05:51;95684.09;;;12.53;66.85
13027;BME280;6580;42.680;23.324;2023-10-08T02:08:37;95683.50;;;12.16;68.47
13027;BME280;6580;42.680;23.324;2023-10-08T02:11:23;95681.22;;;12.21;68.98
13027;BME280;6580;42.680;23.324;2023-10-08T02:14:13;95676.59;;;12.31;68.61
13027;BME280;6580;42.680;23.324;2023-10-08T02:16:59;95677.47;;;12.32;68.84
13027;BME280;6580;42.680;23.324;2023-10-08T02:19:50;95682.59;;;12.25;70.39
13027;BME280;6580;42.680;23.324;2023-10-08T02:22:38;95681.91;;;12.23;71.35
13027;BME280;6580;42.680;23.324;2023-10-08T02:25:24;95675.59;;;12.07;72.49
13027;BME280;6580;42.680;23.324;2023-10-08T02:28:10;95667.34;;;12.18;70.93
13027;BME280;6580;42.680;23.324;2023-10-08T02:31:02;95673.25;;;12.04;71.62
13027;BME280;6580;42.680;23.324;2023-10-08T02:33:48;95668.66;;;12.14;70.09
13027;BME280;6580;42.680;23.324;2023-10-08T02:36:34;95663.91;;;12.00;71.46
13027;BME280;6580;42.680;23.324;2023-10-08T02:39:24;95664.13;;;12.14;71.93
13027;BME280;6580;42.680;23.324;2023-10-08T02:42:10;95663.13;;;12.08;71.67
13027;BME280;6580;42.680;23.324;2023-10-08T02:44:57;95642.06;;;12.30;70.53
13027;BME280;6580;42.680;23.324;2023-10-08T02:47:46;95652.38;;;12.25;70.88
13027;BME280;6580;42.680;23.324;2023-10-08T02:50:33;95660.78;;;12.13;71.97
13027;BME280;6580;42.680;23.324;2023-10-08T02:53:19;95663.31;;;11.89;74.12
13027;BME280;6580;42.680;23.324;2023-10-08T02:56:07;95664.72;;;11.83;74.44
13027;BME280;6580;42.680;23.324;2023-10-08T02:58:57;95669.88;;;12.02;74.54
13027;BME280;6580;42.680;23.324;2023-10-08T03:01:44;95668.44;;;12.08;74.52
13027;BME280;6580;42.680;23.324;2023-10-08T03:04:32;95666.91;;;12.05;74.84
13027;BME280;6580;42.680;23.324;2023-10-08T03:07:20;95664.72;;;11.83;77.17
13027;BME280;6580;42.680;23.324;2023-10-08T03:10:15;95671.09;;;11.82;77.64
13027;BME280;6580;42.680;23.324;2023-10-08T03:13:02;95668.63;;;11.89;77.04
13027;BME280;6580;42.680;23.324;2023-10-08T03:15:50;95677.72;;;11.78;77.91
13027;BME280;6580;42.680;23.324;2023-10-08T03:18:53;95667.66;;;11.90;77.90
13027;BME280;6580;42.680;23.324;2023-10-08T03:21:42;95668.91;;;12.03;76.89
13027;BME280;6580;42.680;23.324;2023-10-08T03:24:33;95659.63;;;11.90;78.63
13027;BME280;6580;42.680;23.324;2023-10-08T03:27:26;95667.78;;;11.88;79.68
13027;BME280;6580;42.680;23.324;2023-10-08T03:30:12;95660.34;;;11.74;79.90
13027;BME280;6580;42.680;23.324;2023-10-08T03:33:01;95666.75;;;11.81;80.23
13027;BME280;6580;42.680;23.324;2023-10-08T03:35:50;95669.16;;;11.75;81.42
13027;BME280;6580;42.680;23.324;2023-10-08T03:38:49;95654.84;;;11.76;81.37
13027;BME280;6580;42.680;23.324;2023-10-08T03:41:36;95656.81;;;11.74;81.31
13027;BME280;6580;42.680;23.324;2023-10-08T03:44:24;95651.25;;;11.85;81.34
13027;BME280;6580;42.680;23.324;2023-10-08T03:47:11;95647.59;;;11.68;82.51
13027;BME280;6580;42.680;23.324;2023-10-08T03:49:58;95644.13;;;11.68;83.14
13027;BME280;6580;42.680;23.324;2023-10-08T03:52:50;95625.13;;;11.71;82.37
13027;BME280;6580;42.680;23.324;2023-10-08T03:55:37;95633.47;;;11.93;81.50
13027;BME280;6580;42.680;23.324;2023-10-08T03:58:25;95633.16;;;11.96;80.64
13027;BME280;6580;42.680;23.324;2023-10-08T04:01:14;95644.84;;;11.78;81.92
13027;BME280;6580;42.680;23.324;2023-10-08T04:04:03;95638.91;;;11.66;83.05
13027;BME280;6580;42.680;23.324;2023-10-08T04:06:49;95632.72;;;11.48;84.21
13027;BME280;6580;42.680;23.324;2023-10-08T04:09:39;95630.47;;;11.53;83.29
13027;BME280;6580;42.680;23.324;2023-10-08T04:12:28;95639.75;;;11.49;85.01
13027;BME280;6580;42.680;23.324;2023-10-08T04:15:20;95635.34;;;11.58;83.46
13027;BME280;6580;42.680;23.324;2023-10-08T04:18:05;95636.03;;;11.42;85.00
13027;BME280;6580;42.680;23.324;2023-10-08T04:20:51;95644.56;;;11.46;85.26
13027;BME280;6580;42.680;23.324;2023-10-08T04:23:48;95642.41;;;11.49;85.90
13027;BME280;6580;42.680;23.324;2023-10-08T04:26:37;95637.31;;;11.38;86.54
13027;BME280;6580;42.680;23.324;2023-10-08T04:29:26;95625.19;;;11.44;86.78
13027;BME280;6580;42.680;23.324;2023-10-08T04:32:17;95632.22;;;11.45;86.33
13027;BME280;6580;42.680;23.324;2023-10-08T04:35:09;95630.22;;;11.29;86.63
13027;BME280;6580;42.680;23.324;2023-10-08T04:37:58;95633.28;;;11.52;85.81
13027;BME280;6580;42.680;23.324;2023-10-08T04:40:44;95635.22;;;11.59;83.20
13027;BME280;6580;42.680;23.324;2023-10-08T04:43:35;95637.75;;;11.51;82.84
13027;BME280;6580;42.680;23.324;2023-10-08T04:46:24;95640.28;;;11.70;81.14
13027;BME280;6580;42.680;23.324;2023-10-08T04:49:31;95645.72;;;11.61;81.32
13027;BME280;6580;42.680;23.324;2023-10-08T04:52:18;95649.41;;;11.50;81.68
13027;BME280;6580;42.680;23.324;2023-10-08T04:55:04;95645.63;;;11.53;82.14
13027;BME280;6580;42.680;23.324;2023-10-08T04:57:59;95638.19;;;11.56;81.12
13027;BME280;6580;42.680;23.324;2023-10-08T05:00:48;95650.81;;;11.54;81.64
13027;BME280;6580;42.680;23.324;2023-10-08T05:03:49;95650.09;;;11.52;81.96
13027;BME280;6580;42.680;23.324;2023-10-08T05:06:51;95654.06;;;11.48;82.82
13027;BME280;6580;42.680;23.324;2023-10-08T05:09:45;95656.00;;;11.73;81.94
13027;BME280;6580;42.680;23.324;2023-10-08T05:12:38;95651.34;;;11.75;81.47
13027;BME280;6580;42.680;23.324;2023-10-08T05:15:30;95637.66;;;11.96;79.52
13027;BME280;6580;42.680;23.324;2023-10-08T05:18:29;95645.56;;;12.05;78.42
13027;BME280;6580;42.680;23.324;2023-10-08T05:21:45;95653.44;;;12.40;78.03
13027;BME280;6580;42.680;23.324;2023-10-08T05:24:37;95654.44;;;12.39;74.91
13027;BME280;6580;42.680;23.324;2023-10-08T05:27:24;95646.31;;;12.48;74.81
13027;BME280;6580;42.680;23.324;2023-10-08T05:30:24;95655.22;;;12.31;75.73
13027;BME280;6580;42.680;23.324;2023-10-08T05:33:22;95649.66;;;12.50;75.08
13027;BME280;6580;42.680;23.324;2023-10-08T05:36:13;95647.25;;;12.65;72.90
13027;BME280;6580;42.680;23.324;2023-10-08T05:39:16;95650.53;;;12.59;72.57
13027;BME280;6580;42.680;23.324;2023-10-08T05:42:14;95651.03;;;12.88;71.27
13027;BME280;6580;42.680;23.324;2023-10-08T05:45:01;95650.94;;;13.05;70.04
13027;BME280;6580;42.680;23.324;2023-10-08T05:47:58;95653.16;;;13.18;69.30
13027;BME280;6580;42.680;23.324;2023-10-08T05:51:06;95657.56;;;13.42;67.82
13027;BME280;6580;42.680;23.324;2023-10-08T05:53:58;95657.09;;;13.55;66.79
13027;BME280;6580;42.680;23.324;2023-10-08T05:56:58;95654.25;;;13.64;66.32
13027;BME280;6580;42.680;23.324;2023-10-08T05:59:52;95664.94;;;13.56;67.05
13027;BME280;6580;42.680;23.324;2023-10-08T06:02:59;95631.16;;;13.63;67.26
13027;BME280;6580;42.680;23.324;2023-10-08T06:06:08;95657.09;;;14.03;66.30
13027;BME280;6580;42.680;23.324;2023-10-08T06:09:20;95656.59;;;14.07;64.96
13027;BME280;6580;42.680;23.324;2023-10-08T06:12:22;95642.53;;;14.21;65.26
13027;BME280;6580;42.680;23.324;2023-10-08T06:15:15;95656.25;;;14.34;64.31
13027;BME280;6580;42.680;23.324;2023-10-08T06:18:09;95634.53;;;14.67;62.49
13027;BME280;6580;42.680;23.324;2023-10-08T06:20:56;95636.47;;;14.51;62.75
13027;BME280;6580;42.680;23.324;2023-10-08T06:23:42;95641.81;;;14.43;62.82
13027;BME280;6580;42.680;23.324;2023-10-08T06:26:28;95646.19;;;14.52;62.43
13027;BME280;6580;42.680;23.324;2023-10-08T06:29:19;95645.44;;;14.74;62.25
13027;BME280;6580;42.680;23.324;2023-10-08T06:32:11;95659.19;;;14.71;62.22
13027;BME280;6580;42.680;23.324;2023-10-08T06:34:56;95643.09;;;14.71;62.17
13027;BME280;6580;42.680;23.324;2023-10-08T06:37:43;95644.41;;;14.75;61.15
13027;BME280;6580;42.680;23.324;2023-10-08T06:40:28;95640.50;;;14.85;60.61
13027;BME280;6580;42.680;23.324;2023-10-08T06:43:28;95640.88;;;15.28;59.53
13027;BME280;6580;42.680;23.324;2023-10-08T06:46:16;95624.38;;;15.31;58.39
13027;BME280;6580;42.680;23.324;2023-10-08T06:49:03;95641.72;;;15.51;58.30
13027;BME280;6580;42.680;23.324;2023-10-08T06:51:55;95629.38;;;15.87;55.88
13027;BME280;6580;42.680;23.324;2023-10-08T06:54:41;95626.22;;;16.57;54.38
13027;BME280;6580;42.680;23.324;2023-10-08T06:57:26;95639.00;;;17.13;52.15
13027;BME280;6580;42.680;23.324;2023-10-08T07:00:13;95626.22;;;17.50;51.05
13027;BME280;6580;42.680;23.324;2023-10-08T07:03:20;95600.94;;;18.29;48.87
13027;BME280;6580;42.680;23.324;2023-10-08T07:06:06;95619.44;;;19.27;47.02
13027;BME280;6580;42.680;23.324;2023-10-08T07:09:01;95621.28;;;19.86;45.19
13027;BME280;6580;42.680;23.324;2023-10-08T07:11:49;95615.13;;;20.11;44.32
13027;BME280;6580;42.680;23.324;2023-10-08T07:14:38;95616.81;;;20.83;41.86
13027;BME280;6580;42.680;23.324;2023-10-08T07:17:27;95611.38;;;20.51;41.88
13027;BME280;6580;42.680;23.324;2023-10-08T07:20:25;95608.47;;;20.33;42.52
13027;BME280;6580;42.680;23.324;2023-10-08T07:23:12;95615.41;;;19.76;43.37
13027;BME280;6580;42.680;23.324;2023-10-08T07:26:11;95604.44;;;19.24;44.13
13027;BME280;6580;42.680;23.324;2023-10-08T07:28:56;95600.69;;;19.25;44.11
13027;BME280;6580;42.680;23.324;2023-10-08T07:31:43;95595.75;;;18.95;44.83
13027;BME280;6580;42.680;23.324;2023-10-08T07:34:32;95598.88;;;18.92;45.45
13027;BME280;6580;42.680;23.324;2023-10-08T07:37:19;95590.59;;;19.00;45.54
13027;BME280;6580;42.680;23.324;2023-10-08T07:40:05;95572.31;;;19.48;44.76
13027;BME280;6580;42.680;23.324;2023-10-08T07:42:54;95583.06;;;20.21;43.17
13027;BME280;6580;42.680;23.324;2023-10-08T07:45:40;95575.22;;;21.22;41.04
13027;BME280;6580;42.680;23.324;2023-10-08T07:48:29;95566.47;;;21.70;40.54
13027;BME280;6580;42.680;23.324;2023-10-08T07:51:14;95559.66;;;23.61;37.71
13027;BME280;6580;42.680;23.324;2023-10-08T07:54:02;95546.69;;;24.33;35.47
13027;BME280;6580;42.680;23.324;2023-10-08T07:56:54;95527.09;;;24.88;33.89
13027;BME280;6580;42.680;23.324;2023-10-08T07:59:44;95542.38;;;24.55;34.83
13027;BME280;6580;42.680;23.324;2023-10-08T08:02:30;95534.88;;;25.31;33.56
13027;BME280;6580;42.680;23.324;2023-10-08T08:05:16;95533.66;;;26.33;32.57
13027;BME280;6580;42.680;23.324;2023-10-08T08:08:03;95530.56;;;25.85;32.24
13027;BME280;6580;42.680;23.324;2023-10-08T08:10:52;95528.16;;;26.17;32.53
13027;BME280;6580;42.680;23.324;2023-10-08T08:13:43;95523.63;;;27.04;31.09
13027;BME280;6580;42.680;23.324;2023-10-08T08:16:31;95523.19;;;26.14;30.40
13027;BME280;6580;42.680;23.324;2023-10-08T08:19:20;95516.41;;;27.15;29.47
13027;BME280;6580;42.680;23.324;2023-10-08T08:22:10;95516.06;;;28.23;27.52
13027;BME280;6580;42.680;23.324;2023-10-08T08:24:59;95511.13;;;29.61;24.93
13027;BME280;6580;42.680;23.324;2023-10-08T08:27:52;95495.41;;;30.32;23.45
13027;BME280;6580;42.680;23.324;2023-10-08T08:30:38;95497.56;;;30.01;22.64
13027;BME280;6580;42.680;23.324;2023-10-08T08:33:25;95494.34;;;29.62;23.71
13027;BME280;6580;42.680;23.324;2023-10-08T08:36:13;95485.53;;;29.50;23.18
13027;BME280;6580;42.680;23.324;2023-10-08T08:38:59;95485.84;;;28.40;24.15
13027;BME280;6580;42.680;23.324;2023-10-08T08:41:45;95494.31;;;28.12;24.90
13027;BME280;6580;42.680;23.324;2023-10-08T08:44:35;95491.34;;;27.87;24.99
13027;BME280;6580;42.680;23.324;2023-10-08T08:47:30;95488.19;;;28.00;24.49
13027;BME280;6580;42.680;23.324;2023-10-08T08:50:16;95484.66;;;27.14;25.11
13027;BME280;6580;42.680;23.324;2023-10-08T08:53:03;95471.38;;;27.91;24.73
13027;BME280;6580;42.680;23.324;2023-10-08T08:55:50;95489.19;;;27.68;25.02
13027;BME280;6580;42.680;23.324;2023-10-08T08:58:37;95478.56;;;28.24;24.36
13027;BME280;6580;42.680;23.324;2023-10-08T09:01:27;95483.03;;;27.34;25.33
13027;BME280;6580;42.680;23.324;2023-10-08T09:04:15;95467.91;;;28.90;23.64
13027;BME280;6580;42.680;23.324;2023-10-08T09:07:01;95460.72;;;30.06;22.82
13027;BME280;6580;42.680;23.324;2023-10-08T09:09:48;95464.44;;;29.71;23.27
13027;BME280;6580;42.680;23.324;2023-10-08T09:12:36;95467.59;;;28.87;23.55
13027;BME280;6580;42.680;23.324;2023-10-08T09:15:23;95467.34;;;28.57;24.03
13027;BME280;6580;42.680;23.324;2023-10-08T09:18:12;95469.00;;;30.31;22.57
13027;BME280;6580;42.680;23.324;2023-10-08T09:21:07;95462.72;;;30.66;21.75
13027;BME280;6580;42.680;23.324;2023-10-08T09:23:55;95451.63;;;31.30;21.50
13027;BME280;6580;42.680;23.324;2023-10-08T09:26:46;95447.44;;;31.43;21.30
13027;BME280;6580;42.680;23.324;2023-10-08T09:29:34;95454.59;;;31.39;21.57
13027;BME280;6580;42.680;23.324;2023-10-08T09:32:23;95454.19;;;30.67;22.16
13027;BME280;6580;42.680;23.324;2023-10-08T09:35:10;95456.03;;;31.26;21.32
13027;BME280;6580;42.680;23.324;2023-10-08T09:37:59;95456.88;;;31.02;21.76
13027;BME280;6580;42.680;23.324;2023-10-08T09:40:45;95437.13;;;30.25;21.72
13027;BME280;6580;42.680;23.324;2023-10-08T09:43:33;95445.88;;;31.02;21.46
13027;BME280;6580;42.680;23.324;2023-10-08T09:46:20;95437.72;;;31.65;21.17
13027;BME280;6580;42.680;23.324;2023-10-08T09:49:10;95429.34;;;31.90;20.92
13027;BME280;6580;42.680;23.324;2023-10-08T09:52:01;95427.69;;;31.84;21.02
13027;BME280;6580;42.680;23.324;2023-10-08T09:55:05;95422.38;;;32.41;20.88
13027;BME280;6580;42.680;23.324;2023-10-08T09:57:54;95422.03;;;32.47;20.36
13027;BME280;6580;42.680;23.324;2023-10-08T10:00:41;95429.94;;;31.09;22.10
13027;BME280;6580;42.680;23.324;2023-10-08T10:03:29;95424.63;;;31.27;21.39
13027;BME280;6580;42.680;23.324;2023-10-08T10:06:15;95418.94;;;30.84;21.74
13027;BME280;6580;42.680;23.324;2023-10-08T10:09:04;95415.31;;;29.74;22.43
13027;BME280;6580;42.680;23.324;2023-10-08T10:11:59;95413.34;;;29.60;22.64
13027;BME280;6580;42.680;23.324;2023-10-08T10:14:47;95418.72;;;29.35;23.18
13027;BME280;6580;42.680;23.324;2023-10-08T10:17:33;95411.44;;;28.99;23.35
13027;BME280;6580;42.680;23.324;2023-10-08T10:20:20;95398.63;;;30.10;22.57
13027;BME280;6580;42.680;23.324;2023-10-08T10:23:36;95400.66;;;31.91;20.94
13027;BME280;6580;42.680;23.324;2023-10-08T10:26:26;95375.53;;;32.69;20.47
13027;BME280;6580;42.680;23.324;2023-10-08T10:29:18;95388.00;;;32.28;20.43
13027;BME280;6580;42.680;23.324;2023-10-08T10:32:05;95387.88;;;30.79;21.57
13027;BME280;6580;42.680;23.324;2023-10-08T10:34:50;95394.22;;;30.64;21.84
13027;BME280;6580;42.680;23.324;2023-10-08T10:37:37;95379.88;;;30.82;22.15
13027;BME280;6580;42.680;23.324;2023-10-08T10:40:26;95378.88;;;30.53;22.81
13027;BME280;6580;42.680;23.324;2023-10-08T10:43:25;95377.09;;;30.97;22.23
13027;BME280;6580;42.680;23.324;2023-10-08T10:46:16;95375.69;;;28.84;24.83
13027;BME280;6580;42.680;23.324;2023-10-08T10:49:13;95367.59;;;27.64;26.00
13027;BME280;6580;42.680;23.324;2023-10-08T10:52:06;95373.88;;;27.64;26.50
13027;BME280;6580;42.680;23.324;2023-10-08T10:54:50;95359.84;;;29.87;24.25
13027;BME280;6580;42.680;23.324;2023-10-08T10:57:43;95361.81;;;30.31;23.61
13027;BME280;6580;42.680;23.324;2023-10-08T11:00:27;95358.25;;;29.05;24.68
13027;BME280;6580;42.680;23.324;2023-10-08T11:03:27;95356.44;;;31.14;23.27
13027;BME280;6580;42.680;23.324;2023-10-08T11:06:16;95351.72;;;32.17;22.04
13027;BME280;6580;42.680;23.324;2023-10-08T11:09:06;95343.41;;;32.78;21.14
13027;BME280;6580;42.680;23.324;2023-10-08T11:11:59;95318.88;;;30.70;22.86
13027;BME280;6580;42.680;23.324;2023-10-08T11:14:47;95335.47;;;31.72;22.30
13027;BME280;6580;42.680;23.324;2023-10-08T11:17:33;95336.16;;;30.76;23.24
13027;BME280;6580;42.680;23.324;2023-10-08T11:20:24;95343.47;;;29.16;24.55
13027;BME280;6580;42.680;23.324;2023-10-08T11:23:11;95337.16;;;27.87;25.82
13027;BME280;6580;42.680;23.324;2023-10-08T11:26:14;95339.97;;;28.79;25.12
13027;BME280;6580;42.680;23.324;2023-10-08T11:29:00;95326.63;;;30.23;24.60
13027;BME280;6580;42.680;23.324;2023-10-08T11:31:47;95318.38;;;30.38;23.82
13027;BME280;6580;42.680;23.324;2023-10-08T11:34:32;95327.03;;;29.21;24.67
13027;BME280;6580;42.680;23.324;2023-10-08T11:37:30;95321.84;;;28.68;25.73
13027;BME280;6580;42.680;23.324;2023-10-08T11:40:26;95327.31;;;27.33;27.38
13027;BME280;6580;42.680;23.324;2023-10-08T11:43:13;95331.56;;;27.72;27.31
13027;BME280;6580;42.680;23.324;2023-10-08T11:46:01;95321.13;;;27.16;27.59
13027;BME280;6580;42.680;23.324;2023-10-08T11:48:49;95323.81;;;27.11;27.88
13027;BME280;6580;42.680;23.324;2023-10-08T11:51:35;95331.66;;;27.29;27.95
13027;BME280;6580;42.680;23.324;2023-10-08T11:54:22;95327.31;;;27.33;27.75
13027;BME280;6580;42.680;23.324;2023-10-08T11:57:10;95329.44;;;27.26;28.26
13027;BME280;6580;42.680;23.324;2023-10-08T11:59:57;95329.34;;;26.35;28.84
13027;BME280;6580;42.680;23.324;2023-10-08T12:02:43;95331.25;;;26.51;29.08
13027;BME280;6580;42.680;23.324;2023-10-08T12:05:30;95316.59;;;26.41;29.03
13027;BME280;6580;42.680;23.324;2023-10-08T12:08:18;95306.44;;;26.79;28.72
13027;BME280;6580;42.680;23.324;2023-10-08T12:11:04;95319.34;;;26.62;29.32
13027;BME280;6580;42.680;23.324;2023-10-08T12:13:57;95303.19;;;27.25;29.07
13027;BME280;6580;42.680;23.324;2023-10-08T12:16:44;95297.13;;;28.17;27.46
13027;BME280;6580;42.680;23.324;2023-10-08T12:19:30;95304.38;;;30.05;25.64
13027;BME280;6580;42.680;23.324;2023-10-08T12:22:16;95301.88;;;29.89;25.12
13027;BME280;6580;42.680;23.324;2023-10-08T12:25:04;95316.00;;;28.55;26.94
13027;BME280;6580;42.680;23.324;2023-10-08T12:27:51;95313.78;;;28.98;26.54
13027;BME280;6580;42.680;23.324;2023-10-08T12:30:42;95319.31;;;28.57;27.03
13027;BME280;6580;42.680;23.324;2023-10-08T12:33:28;95308.69;;;27.61;28.14
13027;BME280;6580;42.680;23.324;2023-10-08T12:36:14;95304.75;;;26.73;29.21
13027;BME280;6580;42.680;23.324;2023-10-08T12:39:00;95306.78;;;27.04;28.90
13027;BME280;6580;42.680;23.324;2023-10-08T12:41:53;95306.47;;;27.27;28.76
13027;BME280;6580;42.680;23.324;2023-10-08T12:44:41;95305.72;;;27.63;28.52
13027;BME280;6580;42.680;23.324;2023-10-08T12:47:27;95313.59;;;27.86;28.07
13027;BME280;6580;42.680;23.324;2023-10-08T12:50:14;95310.75;;;28.43;27.34
13027;BME280;6580;42.680;23.324;2023-10-08T12:52:59;95297.47;;;29.68;26.56
13027;BME280;6580;42.680;23.324;2023-10-08T12:55:48;95294.50;;;30.04;25.65
13027;BME280;6580;42.680;23.324;2023-10-08T12:58:37;95293.09;;;30.16;26.11
13027;BME280;6580;42.680;23.324;2023-10-08T13:01:26;95291.09;;;29.27;26.81
13027;BME280;6580;42.680;23.324;2023-10-08T13:04:15;95306.31;;;28.32;27.37
13027;BME280;6580;42.680;23.324;2023-10-08T13:07:05;95286.75;;;27.83;27.87
13027;BME280;6580;42.680;23.324;2023-10-08T13:09:51;95292.13;;;26.93;28.75
13027;BME280;6580;42.680;23.324;2023-10-08T13:12:37;95295.16;;;26.97;28.76
13027;BME280;6580;42.680;23.324;2023-10-08T13:15:24;95267.00;;;26.70;29.04
13027;BME280;6580;42.680;23.324;2023-10-08T13:18:10;95286.38;;;26.09;29.62
13027;BME280;6580;42.680;23.324;2023-10-08T13:20:58;95288.41;;;25.65;30.03
13027;BME280;6580;42.680;23.324;2023-10-08T13:23:45;95286.38;;;25.60;30.62
13027;BME280;6580;42.680;23.324;2023-10-08T13:26:32;95275.81;;;25.80;30.42
13027;BME280;6580;42.680;23.324;2023-10-08T13:29:18;95274.16;;;25.79;30.36
13027;BME280;6580;42.680;23.324;2023-10-08T13:32:03;95275.16;;;25.57;30.63
13027;BME280;6580;42.680;23.324;2023-10-08T13:34:49;95264.56;;;25.76;30.87
13027;BME280;6580;42.680;23.324;2023-10-08T13:37:36;95275.44;;;26.09;30.13
13027;BME280;6580;42.680;23.324;2023-10-08T13:40:22;95274.00;;;25.53;30.79
13027;BME280;6580;42.680;23.324;2023-10-08T13:43:16;95279.28;;;25.43;31.57
13027;BME280;6580;42.680;23.324;2023-10-08T13:46:04;95259.53;;;25.52;31.35
13027;BME280;6580;42.680;23.324;2023-10-08T13:48:52;95268.38;;;25.43;31.24
13027;BME280;6580;42.680;23.324;2023-10-08T13:51:37;95281.94;;;25.38;31.79
13027;BME280;6580;42.680;23.324;2023-10-08T13:54:26;95274.41;;;25.28;31.47
13027;BME280;6580;42.680;23.324;2023-10-08T13:57:14;95280.69;;;25.29;31.63
13027;BME280;6580;42.680;23.324;2023-10-08T14:00:05;95275.78;;;25.31;31.70
13027;BME280;6580;42.680;23.324;2023-10-08T14:02:57;95275.63;;;25.21;31.53
13027;BME280;6580;42.680;23.324;2023-10-08T14:05:42;95271.06;;;25.10;31.70
13027;BME280;6580;42.680;23.324;2023-10-08T14:08:34;95275.56;;;25.04;31.88
13027;BME280;6580;42.680;23.324;2023-10-08T14:11:23;95266.66;;;25.09;31.83
13027;BME280;6580;42.680;23.324;2023-10-08T14:14:09;95276.81;;;25.25;31.43
13027;BME280;6580;42.680;23.324;2023-10-08T14:16:56;95273.09;;;25.03;31.79
13027;BME280;6580;42.680;23.324;2023-10-08T14:19:47;95269.63;;;24.91;32.03
13027;BME280;6580;42.680;23.324;2023-10-08T14:22:36;95279.50;;;24.97;32.04
13027;BME280;6580;42.680;23.324;2023-10-08T14:25:22;95271.53;;;24.79;31.87
13027;BME280;6580;42.680;23.324;2023-10-08T14:28:10;95278.47;;;24.70;32.15
13027;BME280;6580;42.680;23.324;2023-10-08T14:31:06;95273.94;;;24.75;32.77
13027;BME280;6580;42.680;23.324;2023-10-08T14:33:52;95280.13;;;24.71;32.50
13027;BME280;6580;42.680;23.324;2023-10-08T14:36:50;95289.53;;;24.52;32.23
13027;BME280;6580;42.680;23.324;2023-10-08T14:39:53;95284.09;;;24.52;32.41
13027;BME280;6580;42.680;23.324;2023-10-08T14:42:56;95292.28;;;24.29;32.64
13027;BME280;6580;42.680;23.324;2023-10-08T14:45:48;95291.09;;;24.25;32.52
13027;BME280;6580;42.680;23.324;2023-10-08T14:48:35;95293.47;;;24.33;32.78
13027;BME280;6580;42.680;23.324;2023-10-08T14:51:21;95286.09;;;24.45;32.39
13027;BME280;6580;42.680;23.324;2023-10-08T14:54:08;95302.81;;;24.37;32.81
13027;BME280;6580;42.680;23.324;2023-10-08T14:56:56;95286.66;;;24.19;32.71
13027;BME280;6580;42.680;23.324;2023-10-08T14:59:42;95285.00;;;24.18;33.45